Time;durP1;ratioP1;P1;durP2;ratioP2;P2;SDS_P1;SDS_P2;PMS_P1;PMS_P2;Temp;Humidity;BMP_temperature;BMP_pressure;BME280_temperature;BME280_humidity;BME280_pressure;Samples;Min_cycle;Max_cycle;Signal;HPM_P1;HPM_P2
2024/03/05 00:00:58;;;;;;;37.50;26.60;;;9.60;99.90;;;;;;5032754;28;20404;-70
2024/03/05 00:03:24;;;;;;;40.90;30.10;;;9.70;99.90;;;;;;5033029;28;20474;-70
2024/03/05 00:05:50;;;;;;;49.83;30.47;;;9.80;99.90;;;;;;5036630;28;20771;-69
2024/03/05 00:08:16;;;;;;;44.80;26.30;;;9.70;99.90;;;;;;5053341;28;20410;-69
2024/03/05 00:10:42;;;;;;;38.20;27.53;;;9.70;99.90;;;;;;5052662;28;20195;-69
2024/03/05 00:13:08;;;;;;;37.20;26.50;;;9.60;99.90;;;;;;5052489;28;20465;-70
2024/03/05 00:15:33;;;;;;;45.03;28.13;;;9.70;99.90;;;;;;5050862;28;20405;-70
2024/03/05 00:17:59;;;;;;;46.90;28.53;;;9.80;99.90;;;;;;5032447;28;20594;-69
2024/03/05 00:20:24;;;;;;;42.87;28.90;;;9.90;99.90;;;;;;5032898;28;20174;-69
2024/03/05 00:22:51;;;;;;;40.27;27.20;;;10.00;99.90;;;;;;5032559;28;20209;-69
2024/03/05 00:25:17;;;;;;;43.23;28.60;;;9.90;99.90;;;;;;5032771;28;20256;-69
2024/03/05 00:27:44;;;;;;;40.80;27.40;;;10.00;99.90;;;;;;5051524;28;20411;-69
2024/03/05 00:30:12;;;;;;;42.80;27.83;;;10.10;99.90;;;;;;5051227;28;20411;-70
2024/03/05 00:32:37;;;;;;;36.30;26.13;;;10.10;99.90;;;;;;5053999;28;20435;-70
2024/03/05 00:35:05;;;;;;;42.80;27.87;;;10.10;99.90;;;;;;5056456;28;20801;-69
2024/03/05 00:37:31;;;;;;;33.97;25.50;;;10.20;99.90;;;;;;5037057;28;20210;-69
2024/03/05 00:39:56;;;;;;;37.13;24.90;;;10.20;99.90;;;;;;5107947;22;20562;-69
2024/03/05 00:42:22;;;;;;;36.70;24.67;;;10.20;99.90;;;;;;5116391;28;20171;-70
2024/03/05 00:44:47;;;;;;;39.40;26.17;;;10.20;99.90;;;;;;5115865;28;20175;-70
2024/03/05 00:47:13;;;;;;;32.47;24.00;;;10.20;99.90;;;;;;5116366;28;20172;-71
2024/03/05 00:49:39;;;;;;;35.60;25.00;;;10.20;99.90;;;;;;5116032;28;20193;-72
2024/03/05 00:52:04;;;;;;;38.97;25.77;;;10.20;99.90;;;;;;5115992;28;20166;-71
2024/03/05 00:54:30;;;;;;;41.70;26.50;;;10.00;99.90;;;;;;5116075;28;20190;-71
2024/03/05 00:56:56;;;;;;;40.87;28.57;;;10.10;99.90;;;;;;5116442;28;20514;-71
2024/03/05 00:59:22;;;;;;;41.53;25.87;;;10.30;99.90;;;;;;5115905;28;20194;-69
2024/03/05 01:01:48;;;;;;;38.90;25.60;;;10.40;99.90;;;;;;5115954;28;20191;-71
2024/03/05 01:04:14;;;;;;;35.40;25.07;;;10.50;99.90;;;;;;5116109;28;20443;-71
2024/03/05 01:06:43;;;;;;;29.83;22.03;;;10.50;99.90;;;;;;5116026;28;20400;-70
2024/03/05 01:09:15;;;;;;;33.23;23.10;;;10.40;99.90;;;;;;5115773;28;20284;-71
2024/03/05 01:11:41;;;;;;;36.87;26.60;;;10.40;99.90;;;;;;5114385;28;20479;-72
2024/03/05 01:14:07;;;;;;;41.63;28.97;;;10.60;99.90;;;;;;5115621;28;20409;-70
2024/03/05 01:16:32;;;;;;;36.93;24.87;;;10.70;99.90;;;;;;5115547;28;20528;-70
2024/03/05 01:18:59;;;;;;;46.90;29.57;;;10.50;99.90;;;;;;5115475;28;20209;-71
2024/03/05 01:21:25;;;;;;;35.30;24.90;;;10.40;99.90;;;;;;5115709;28;20160;-70
2024/03/05 01:23:50;;;;;;;37.53;27.07;;;10.40;99.90;;;;;;5115670;28;20515;-70
2024/03/05 01:26:16;;;;;;;38.47;24.73;;;10.50;99.90;;;;;;5115448;28;20230;-70
2024/03/05 01:28:41;;;;;;;33.30;23.97;;;10.50;99.90;;;;;;5115887;28;20185;-70
2024/03/05 01:31:08;;;;;;;42.97;25.53;;;10.60;99.90;;;;;;5115138;28;20203;-71
2024/03/05 01:33:36;;;;;;;34.00;23.63;;;10.60;99.90;;;;;;5115664;28;20172;-71
2024/03/05 01:36:03;;;;;;;38.10;26.63;;;10.40;99.90;;;;;;5115177;28;20764;-71
2024/03/05 01:38:29;;;;;;;36.40;25.83;;;10.40;99.90;;;;;;5115267;28;20464;-71
2024/03/05 01:40:55;;;;;;;31.47;23.10;;;10.40;99.90;;;;;;5115196;28;20756;-71
2024/03/05 01:43:21;;;;;;;33.27;23.43;;;10.60;99.90;;;;;;5114815;27;20931;-70
2024/03/05 01:45:48;;;;;;;40.23;25.87;;;10.70;99.90;;;;;;5115486;28;20237;-71
2024/03/05 01:48:16;;;;;;;35.63;24.10;;;10.60;99.90;;;;;;5115717;28;20508;-71
2024/03/05 01:50:42;;;;;;;30.10;22.77;;;10.60;99.90;;;;;;5094797;28;20407;-71
2024/03/05 01:53:12;;;;;;;34.20;24.70;;;10.50;99.90;;;;;;5094826;28;20411;-71
2024/03/05 01:55:39;;;;;;;31.70;23.60;;;10.60;99.90;;;;;;5094466;28;20411;-71
2024/03/05 01:58:07;;;;;;;33.13;22.97;;;10.70;99.90;;;;;;5094161;28;20439;-70
2024/03/05 02:00:36;;;;;;;30.57;23.13;;;10.60;99.90;;;;;;5113485;28;20468;-70
2024/03/05 02:03:02;;;;;;;37.13;24.07;;;10.60;99.90;;;;;;5115042;28;20780;-71
2024/03/05 02:05:28;;;;;;;32.10;23.13;;;10.70;99.90;;;;;;5114729;28;20445;-71
2024/03/05 02:07:54;;;;;;;33.67;23.33;;;10.50;99.90;;;;;;5114927;28;20794;-70
2024/03/05 02:10:20;;;;;;;34.60;22.70;;;10.60;99.90;;;;;;5114577;28;20422;-70
2024/03/05 02:12:46;;;;;;;36.93;25.13;;;10.70;99.90;;;;;;5114459;28;20169;-70
2024/03/05 02:15:11;;;;;;;36.33;23.20;;;10.70;99.90;;;;;;5114213;28;20547;-70
2024/03/05 02:17:40;;;;;;;36.20;25.00;;;10.70;99.90;;;;;;5114185;28;20275;-70
2024/03/05 02:20:13;;;;;;;36.33;24.60;;;10.90;99.90;;;;;;5114173;28;20214;-70
2024/03/05 02:22:39;;;;;;;37.17;26.63;;;10.90;99.90;;;;;;5114405;28;20375;-71
2024/03/05 02:25:05;;;;;;;37.27;24.33;;;10.80;99.90;;;;;;5114339;28;20875;-70
2024/03/05 02:27:32;;;;;;;43.90;30.40;;;10.80;99.90;;;;;;5114430;28;20465;-71
2024/03/05 02:29:59;;;;;;;39.17;25.90;;;10.70;99.90;;;;;;5113865;28;20434;-69
2024/03/05 02:32:25;;;;;;;36.83;25.20;;;10.70;99.90;;;;;;5113149;28;20409;-70
2024/03/05 02:34:54;;;;;;;36.13;24.40;;;10.70;99.90;;;;;;5111287;28;20412;-71
2024/03/05 02:37:21;;;;;;;36.60;25.13;;;10.80;99.90;;;;;;5113887;28;20950;-71
2024/03/05 02:39:47;;;;;;;38.70;27.33;;;10.80;99.90;;;;;;5113624;28;20438;-71
2024/03/05 02:42:12;;;;;;;37.40;25.17;;;10.90;99.90;;;;;;5113792;28;20410;-70
2024/03/05 02:44:39;;;;;;;37.80;24.50;;;10.90;99.90;;;;;;5113793;28;20173;-70
2024/03/05 02:47:07;;;;;;;38.17;26.90;;;10.80;99.90;;;;;;5114114;28;20209;-70
2024/03/05 02:49:34;;;;;;;37.83;25.57;;;10.70;99.90;;;;;;5113674;28;20434;-70
2024/03/05 02:51:59;;;;;;;38.00;25.53;;;10.70;99.90;;;;;;5114069;28;20911;-69
2024/03/05 02:54:25;;;;;;;34.40;24.70;;;10.90;99.90;;;;;;5113608;28;20440;-69
2024/03/05 02:56:51;;;;;;;36.67;25.30;;;10.90;99.90;;;;;;5113613;28;20201;-70
2024/03/05 02:59:17;;;;;;;40.73;26.67;;;10.90;99.90;;;;;;5113370;28;20536;-70
2024/03/05 03:01:50;;;;;;;39.10;26.00;;;10.90;99.90;;;;;;5113831;28;20184;-70
2024/03/05 03:04:15;;;;;;;39.30;26.80;;;10.80;99.90;;;;;;5113763;28;20381;-70
2024/03/05 03:06:41;;;;;;;39.67;25.80;;;10.70;99.90;;;;;;5113389;28;20421;-70
2024/03/05 03:09:07;;;;;;;38.43;24.30;;;10.70;99.90;;;;;;5113542;28;20192;-70
2024/03/05 03:11:34;;;;;;;42.30;27.27;;;10.70;99.90;;;;;;5113312;28;20550;-71
2024/03/05 03:14:00;;;;;;;38.57;23.80;;;10.70;99.90;;;;;;5113564;28;20403;-70
2024/03/05 03:16:26;;;;;;;46.27;28.50;;;10.60;99.90;;;;;;5113472;28;20530;-69
2024/03/05 03:18:51;;;;;;;44.60;29.00;;;10.60;99.90;;;;;;5113145;28;20553;-71
2024/03/05 03:21:17;;;;;;;38.13;24.97;;;10.50;99.90;;;;;;5111982;28;20174;-69
2024/03/05 03:23:45;;;;;;;40.13;24.93;;;10.60;99.90;;;;;;5113252;28;20161;-70
2024/03/05 03:26:11;;;;;;;44.90;27.93;;;10.50;99.90;;;;;;5113288;28;20161;-71
2024/03/05 03:28:37;;;;;;;44.50;25.43;;;10.50;99.90;;;;;;5113281;28;20423;-71
2024/03/05 03:31:05;;;;;;;42.20;27.27;;;10.40;99.90;;;;;;5113455;28;20395;-70
2024/03/05 03:33:31;;;;;;;39.50;25.93;;;10.30;99.90;;;;;;5112762;28;20423;-70
2024/03/05 03:35:57;;;;;;;49.20;30.53;;;10.20;99.90;;;;;;5113158;28;20400;-70
2024/03/05 03:38:23;;;;;;;43.67;26.50;;;10.10;99.90;;;;;;5111753;28;20470;-70
2024/03/05 03:40:49;;;;;;;44.30;29.00;;;10.10;99.90;;;;;;5113234;28;20405;-70
2024/03/05 03:43:15;;;;;;;36.93;25.77;;;10.00;99.90;;;;;;5113091;28;20165;-69
2024/03/05 03:45:41;;;;;;;42.67;26.97;;;10.00;99.90;;;;;;5113228;28;20228;-71
2024/03/05 03:48:07;;;;;;;42.73;27.97;;;10.10;99.90;;;;;;5112837;28;20409;-70
2024/03/05 03:50:32;;;;;;;43.40;28.07;;;10.30;99.90;;;;;;5112896;28;20163;-71
2024/03/05 03:52:58;;;;;;;40.63;25.30;;;10.30;99.90;;;;;;5112883;28;20430;-72
2024/03/05 03:55:24;;;;;;;35.87;25.27;;;10.30;99.90;;;;;;5112822;28;20201;-71
2024/03/05 03:57:50;;;;;;;43.00;27.07;;;10.30;99.90;;;;;;5112836;28;20277;-70
2024/03/05 04:00:17;;;;;;;34.20;24.40;;;10.30;99.90;;;;;;5112578;28;20187;-70
2024/03/05 04:02:43;;;;;;;44.63;26.33;;;10.40;99.90;;;;;;5112779;28;20415;-70
2024/03/05 04:05:09;;;;;;;44.77;28.13;;;10.30;99.90;;;;;;5113097;28;20486;-70
2024/03/05 04:07:36;;;;;;;37.27;25.63;;;10.40;99.90;;;;;;5114220;28;20401;-70
2024/03/05 04:10:02;;;;;;;36.87;25.07;;;10.50;99.90;;;;;;5116916;28;20759;-70
2024/03/05 04:12:28;;;;;;;37.80;25.00;;;10.40;99.90;;;;;;5116782;28;20487;-71
2024/03/05 04:14:54;;;;;;;38.03;25.03;;;10.30;99.90;;;;;;5116628;28;20480;-71
2024/03/05 04:17:20;;;;;;;41.07;24.80;;;10.10;99.90;;;;;;5116613;28;20441;-71
2024/03/05 04:19:47;;;;;;;41.33;25.50;;;10.00;99.90;;;;;;5116489;28;20430;-70
2024/03/05 04:22:14;;;;;;;42.73;27.33;;;10.00;99.90;;;;;;5116480;28;20974;-71
2024/03/05 04:24:47;;;;;;;38.30;25.60;;;10.00;99.90;;;;;;5116487;28;20400;-70
2024/03/05 04:27:12;;;;;;;33.20;24.30;;;10.10;99.90;;;;;;5116365;28;20388;-70
2024/03/05 04:29:41;;;;;;;36.50;23.23;;;10.00;99.90;;;;;;5116221;28;20447;-71
2024/03/05 04:32:11;;;;;;;36.37;23.70;;;9.90;99.90;;;;;;5116595;28;20696;-69
2024/03/05 04:34:40;;;;;;;45.90;27.87;;;9.90;99.90;;;;;;5116205;28;20957;-69
2024/03/05 04:37:10;;;;;;;41.63;25.90;;;10.00;99.90;;;;;;5116120;28;20464;-70
2024/03/05 04:39:37;;;;;;;38.53;24.80;;;10.00;99.90;;;;;;5110144;28;20444;-71
2024/03/05 04:42:03;;;;;;;43.80;25.53;;;9.90;99.90;;;;;;5095815;28;20410;-69
2024/03/05 04:44:29;;;;;;;39.93;25.80;;;9.90;99.90;;;;;;5095703;28;20395;-70
2024/03/05 04:46:56;;;;;;;44.57;27.53;;;9.90;99.90;;;;;;5095769;28;20183;-70
2024/03/05 04:49:21;;;;;;;37.77;25.30;;;9.90;99.90;;;;;;5102187;28;20850;-71
2024/03/05 04:51:49;;;;;;;40.33;23.90;;;9.90;99.90;;;;;;5115901;28;20412;-70
2024/03/05 04:54:15;;;;;;;31.33;22.87;;;10.00;99.90;;;;;;5116046;28;20195;-70
2024/03/05 04:56:40;;;;;;;38.53;24.77;;;10.00;99.90;;;;;;5115775;28;20483;-69
2024/03/05 04:59:06;;;;;;;38.93;25.97;;;10.10;99.90;;;;;;5115651;28;20535;-70
2024/03/05 05:01:31;;;;;;;32.43;22.67;;;10.20;99.90;;;;;;5115814;28;20631;-71
2024/03/05 05:03:57;;;;;;;43.87;25.40;;;10.20;99.90;;;;;;5115993;28;20167;-70
2024/03/05 05:06:23;;;;;;;36.23;23.40;;;10.20;99.90;;;;;;5115953;28;20173;-70
2024/03/05 05:08:49;;;;;;;33.70;23.00;;;10.20;99.90;;;;;;5115916;28;20267;-70
2024/03/05 05:11:14;;;;;;;35.67;23.63;;;10.30;99.90;;;;;;5114303;28;20577;-70
2024/03/05 05:13:40;;;;;;;34.30;22.73;;;10.30;99.90;;;;;;5115993;28;20494;-69
2024/03/05 05:16:08;;;;;;;37.33;23.20;;;10.30;99.90;;;;;;5116035;28;20171;-70
2024/03/05 05:18:34;;;;;;;37.17;23.93;;;10.40;99.90;;;;;;5114827;28;20670;-71
2024/03/05 05:21:00;;;;;;;38.00;24.20;;;10.40;99.90;;;;;;5115636;28;20918;-69
2024/03/05 05:23:26;;;;;;;35.80;23.80;;;10.40;99.90;;;;;;5115475;28;20885;-69
2024/03/05 05:25:52;;;;;;;38.63;23.87;;;10.50;99.90;;;;;;5115659;28;20423;-70
2024/03/05 05:28:18;;;;;;;36.00;24.00;;;10.40;99.90;;;;;;5115428;28;20166;-71
2024/03/05 05:30:44;;;;;;;39.90;25.73;;;10.50;99.90;;;;;;5115279;28;20408;-71
2024/03/05 05:33:09;;;;;;;35.63;24.60;;;10.40;99.90;;;;;;5115442;28;20178;-70
2024/03/05 05:35:37;;;;;;;29.63;21.37;;;10.40;99.90;;;;;;5115607;28;20176;-71
2024/03/05 05:38:03;;;;;;;31.27;21.33;;;10.30;99.90;;;;;;5115101;28;20282;-70
2024/03/05 05:40:29;;;;;;;37.27;24.80;;;10.30;99.90;;;;;;5114914;28;20456;-70
2024/03/05 05:42:54;;;;;;;44.37;28.03;;;10.30;99.90;;;;;;5114768;28;20430;-70
2024/03/05 05:45:22;;;;;;;34.40;22.73;;;10.40;99.90;;;;;;5115324;28;20173;-70
2024/03/05 05:47:54;;;;;;;39.00;24.30;;;10.40;99.90;;;;;;5114836;28;20166;-69
2024/03/05 05:50:22;;;;;;;41.63;26.50;;;10.40;99.90;;;;;;5114721;28;20516;-70
2024/03/05 05:52:48;;;;;;;41.30;26.33;;;10.50;99.90;;;;;;5114800;28;20412;-71
2024/03/05 05:55:19;;;;;;;40.43;25.87;;;10.50;99.90;;;;;;5114858;28;20460;-71
2024/03/05 05:57:46;;;;;;;40.90;27.00;;;10.50;99.90;;;;;;5115013;28;20445;-71
2024/03/05 06:00:22;;;;;;;34.70;23.70;;;10.60;99.90;;;;;;5114693;28;20472;-69
2024/03/05 06:02:55;;;;;;;44.17;27.93;;;10.60;99.90;;;;;;5114758;28;20435;-69
2024/03/05 06:05:28;;;;;;;42.97;27.93;;;10.60;99.90;;;;;;5114582;28;20481;-70
2024/03/05 06:07:54;;;;;;;43.50;27.57;;;10.60;99.90;;;;;;5114678;28;20394;-71
2024/03/05 06:10:22;;;;;;;46.70;31.07;;;10.60;99.90;;;;;;5114348;28;20430;-70
2024/03/05 06:12:47;;;;;;;41.13;25.67;;;10.50;99.90;;;;;;5113167;28;20214;-70
2024/03/05 06:15:13;;;;;;;47.00;26.70;;;10.50;99.90;;;;;;5114605;28;20443;-70
2024/03/05 06:17:42;;;;;;;44.37;27.67;;;10.60;99.90;;;;;;5114733;28;20195;-71
2024/03/05 06:20:12;;;;;;;40.40;27.33;;;10.60;99.90;;;;;;5112993;28;20196;-70
2024/03/05 06:22:44;;;;;;;45.50;29.30;;;10.70;99.90;;;;;;5113332;28;20406;-70
2024/03/05 06:25:13;;;;;;;48.73;30.37;;;10.60;99.90;;;;;;5114227;28;20882;-71
2024/03/05 06:27:40;;;;;;;45.10;28.40;;;10.70;99.90;;;;;;5113955;28;20973;-70
2024/03/05 06:30:17;;;;;;;40.50;25.93;;;10.70;99.90;;;;;;5114212;28;20438;-70
2024/03/05 06:32:49;;;;;;;46.67;29.47;;;10.80;99.90;;;;;;5098415;28;20553;-70
2024/03/05 06:35:20;;;;;;;48.03;29.70;;;10.70;99.90;;;;;;5108065;28;20409;-70
2024/03/05 06:37:46;;;;;;;42.20;27.57;;;10.70;99.90;;;;;;5113711;28;20452;-69
2024/03/05 06:40:13;;;;;;;48.00;29.37;;;10.80;99.90;;;;;;5091606;22;20985;-70
2024/03/05 06:42:51;;;;;;;50.40;30.13;;;10.70;99.90;;;;;;5053654;28;20462;-71
2024/03/05 06:45:24;;;;;;;40.40;26.77;;;10.70;99.90;;;;;;5053901;28;20468;-70
2024/03/05 06:47:56;;;;;;;43.30;28.33;;;10.70;99.90;;;;;;5053860;28;20450;-70
2024/03/05 06:50:38;;;;;;;45.60;28.73;;;10.70;99.90;;;;;;5040460;28;20775;-70
2024/03/05 06:58:34;;;;;;;47.70;29.17;;;10.70;99.90;;;;;;5033412;28;20969;-70
2024/03/05 07:01:06;;;;;;;52.30;30.50;;;10.60;99.90;;;;;;5051417;28;20412;-70
2024/03/05 07:03:34;;;;;;;48.47;30.70;;;10.70;99.90;;;;;;5054018;28;20382;-70
2024/03/05 07:06:06;;;;;;;46.37;30.97;;;10.70;99.90;;;;;;5053468;28;20458;-70
2024/03/05 07:08:33;;;;;;;44.77;29.03;;;10.80;99.90;;;;;;5053528;28;20392;-69
2024/03/05 07:11:00;;;;;;;47.60;30.10;;;10.90;99.90;;;;;;5035423;28;20494;-70
2024/03/05 07:13:28;;;;;;;44.10;27.83;;;10.90;99.90;;;;;;5033033;28;20766;-70
2024/03/05 07:15:54;;;;;;;43.90;28.60;;;10.90;99.90;;;;;;5033519;28;20475;-70
2024/03/05 07:18:19;;;;;;;42.67;27.33;;;10.90;99.90;;;;;;5032916;28;20448;-70
2024/03/05 07:20:45;;;;;;;41.63;28.07;;;10.90;99.90;;;;;;5048612;28;20691;-70
2024/03/05 07:23:11;;;;;;;42.13;27.70;;;10.90;99.90;;;;;;5053237;28;20194;-70
2024/03/05 07:25:38;;;;;;;44.00;27.00;;;10.90;99.90;;;;;;5051562;28;20923;-70
2024/03/05 07:28:04;;;;;;;46.13;30.47;;;10.90;99.90;;;;;;5053054;28;20416;-69
2024/03/05 07:30:30;;;;;;;43.33;30.20;;;10.70;99.90;;;;;;5039317;28;20430;-70
2024/03/05 07:32:56;;;;;;;50.50;31.70;;;10.70;99.90;;;;;;5032843;28;20892;-70
2024/03/05 07:35:22;;;;;;;41.57;27.40;;;10.80;99.90;;;;;;5035577;28;20182;-70
2024/03/05 07:37:47;;;;;;;48.47;30.50;;;10.90;99.90;;;;;;5033118;28;20453;-70
2024/03/05 07:40:17;;;;;;;41.07;27.67;;;10.90;99.90;;;;;;5043476;28;20209;-70
2024/03/05 07:42:51;;;;;;;52.70;32.50;;;10.90;99.90;;;;;;5052066;28;20177;-70
2024/03/05 07:45:18;;;;;;;43.03;27.97;;;11.00;99.90;;;;;;5052554;28;20415;-70
2024/03/05 07:47:45;;;;;;;43.33;28.83;;;11.00;99.90;;;;;;5052556;28;20450;-70
2024/03/05 07:50:14;;;;;;;55.23;34.60;;;11.00;99.90;;;;;;5042039;28;20430;-69
2024/03/05 07:52:44;;;;;;;42.70;25.97;;;10.80;99.90;;;;;;5032795;28;20468;-70
2024/03/05 07:55:15;;;;;;;45.23;27.30;;;10.90;99.90;;;;;;5032061;28;20415;-70
2024/03/05 07:57:41;;;;;;;45.73;28.57;;;10.80;99.90;;;;;;5032692;28;20482;-70
2024/03/05 08:00:11;;;;;;;43.60;27.10;;;10.90;99.90;;;;;;5042350;28;20459;-70
2024/03/05 08:02:47;;;;;;;39.07;25.20;;;11.00;99.90;;;;;;5052541;28;20749;-69
2024/03/05 08:05:18;;;;;;;46.20;31.33;;;10.90;99.90;;;;;;5051209;28;20404;-70
2024/03/05 08:07:45;;;;;;;38.33;24.80;;;11.00;99.90;;;;;;5052579;28;20896;-70
2024/03/05 08:10:12;;;;;;;41.67;27.70;;;10.90;99.90;;;;;;5042317;28;20434;-70
2024/03/05 08:12:39;;;;;;;38.00;26.53;;;11.10;99.90;;;;;;5032560;28;20439;-70
2024/03/05 08:15:06;;;;;;;44.63;30.17;;;11.10;99.90;;;;;;5032512;28;20412;-70
2024/03/05 08:17:35;;;;;;;46.20;29.27;;;11.10;99.90;;;;;;5032190;28;20460;-70
2024/03/05 08:20:01;;;;;;;42.47;27.10;;;11.20;99.90;;;;;;5041052;28;20485;-70
2024/03/05 08:22:27;;;;;;;41.60;28.80;;;11.20;99.90;;;;;;5052424;28;20404;-70
2024/03/05 08:24:53;;;;;;;49.73;32.03;;;11.30;99.90;;;;;;5052081;28;20412;-70
2024/03/05 08:27:18;;;;;;;45.53;26.70;;;11.40;99.90;;;;;;5051708;28;20178;-70
2024/03/05 08:29:45;;;;;;;52.50;31.20;;;11.40;99.90;;;;;;5045865;28;20270;-70
2024/03/05 08:32:11;;;;;;;40.17;25.73;;;11.50;99.90;;;;;;5031683;28;20549;-70
2024/03/05 08:34:39;;;;;;;38.60;26.73;;;11.50;99.90;;;;;;5032457;28;20409;-70
2024/03/05 08:37:05;;;;;;;48.87;29.00;;;11.40;99.90;;;;;;5032725;28;20462;-70
2024/03/05 08:39:32;;;;;;;43.97;29.80;;;11.30;99.90;;;;;;5036320;28;20489;-70
2024/03/05 08:41:58;;;;;;;37.53;25.30;;;11.10;99.90;;;;;;5050495;28;20163;-69
2024/03/05 08:44:25;;;;;;;47.03;27.07;;;10.90;99.90;;;;;;5032354;28;20407;-70
2024/03/05 08:46:51;;;;;;;46.70;27.70;;;10.90;99.90;;;;;;5030921;28;20405;-70
2024/03/05 08:49:16;;;;;;;42.47;27.63;;;11.00;99.90;;;;;;5034189;28;20432;-70
2024/03/05 08:51:42;;;;;;;40.67;25.93;;;11.10;99.90;;;;;;5052035;28;20173;-70
2024/03/05 08:54:08;;;;;;;38.23;26.83;;;11.00;99.90;;;;;;5054370;28;20205;-70
2024/03/05 08:56:37;;;;;;;47.90;29.97;;;10.80;99.90;;;;;;5056136;28;20182;-70
2024/03/05 08:59:06;;;;;;;37.57;26.07;;;10.90;99.90;;;;;;5055657;28;20428;-70
2024/03/05 09:01:33;;;;;;;35.17;24.93;;;10.80;99.90;;;;;;5035726;28;20405;-70
2024/03/05 09:04:09;;;;;;;35.47;24.87;;;10.60;99.90;;;;;;5035647;28;20417;-70
2024/03/05 09:06:36;;;;;;;33.97;24.47;;;10.50;99.90;;;;;;5035760;28;20403;-70
2024/03/05 09:09:01;;;;;;;26.77;18.93;;;10.50;99.90;;;;;;5035766;28;20432;-70
2024/03/05 09:11:27;;;;;;;24.87;17.30;;;10.20;99.90;;;;;;5055468;28;20408;-70
2024/03/05 09:13:53;;;;;;;18.83;14.67;;;9.80;99.90;;;;;;5055637;28;20533;-70
2024/03/05 09:16:19;;;;;;;24.80;17.17;;;9.80;99.90;;;;;;5055589;28;20395;-69
2024/03/05 09:18:44;;;;;;;25.20;16.47;;;9.70;99.90;;;;;;5055336;28;20173;-69
2024/03/05 09:21:11;;;;;;;18.23;12.67;;;9.80;99.90;;;;;;5037957;28;20175;-69
2024/03/05 09:23:38;;;;;;;20.53;14.03;;;9.70;99.90;;;;;;5035594;28;20175;-70
2024/03/05 09:26:04;;;;;;;16.27;12.40;;;9.60;99.90;;;;;;5035144;28;20909;-69
2024/03/05 09:28:31;;;;;;;19.50;12.87;;;9.70;99.90;;;;;;5037870;28;20443;-68
2024/03/05 09:30:57;;;;;;;19.73;13.63;;;9.60;99.90;;;;;;5050330;28;20977;-69
2024/03/05 09:33:24;;;;;;;17.87;11.40;;;9.60;99.90;;;;;;5055002;28;20399;-69
2024/03/05 09:35:49;;;;;;;16.90;13.40;;;9.70;99.90;;;;;;5053992;28;20186;-70
2024/03/05 09:38:16;;;;;;;18.00;11.90;;;9.90;99.90;;;;;;5055319;28;20476;-70
2024/03/05 09:40:42;;;;;;;14.97;11.40;;;10.00;99.90;;;;;;5042030;28;20636;-70
2024/03/05 09:43:08;;;;;;;12.93;9.43;;;10.10;99.90;;;;;;5035196;28;20539;-70
2024/03/05 09:45:37;;;;;;;13.67;10.60;;;10.10;99.90;;;;;;5035126;28;20450;-70
2024/03/05 09:48:04;;;;;;;14.30;10.90;;;10.30;99.90;;;;;;5035550;28;20504;-70
2024/03/05 09:50:33;;;;;;;12.93;10.00;;;10.40;99.90;;;;;;5045627;28;20430;-70
2024/03/05 09:53:00;;;;;;;15.10;11.27;;;10.50;99.90;;;;;;5054431;28;20417;-70
2024/03/05 09:55:26;;;;;;;12.17;10.00;;;10.50;99.90;;;;;;5054461;28;20419;-70
2024/03/05 09:57:54;;;;;;;14.00;10.27;;;10.60;99.90;;;;;;5054324;28;20800;-70
2024/03/05 10:00:20;;;;;;;11.90;9.27;;;10.50;99.90;;;;;;5044581;28;20974;-70
2024/03/05 10:02:50;;;;;;;13.77;9.40;;;10.40;99.90;;;;;;5034720;28;20428;-70
2024/03/05 10:05:19;;;;;;;14.10;9.53;;;10.20;99.90;;;;;;5033956;28;20481;-70
2024/03/05 10:07:46;;;;;;;13.57;10.33;;;10.30;99.90;;;;;;5034516;28;20838;-70
2024/03/05 10:10:14;;;;;;;13.30;8.93;;;10.40;99.90;;;;;;5042866;28;20535;-70
2024/03/05 10:12:39;;;;;;;12.40;9.13;;;10.40;99.90;;;;;;5054357;28;20412;-70
2024/03/05 10:15:25;;;;;;;9.23;7.53;;;10.50;99.90;;;;;;5054174;28;20489;-70
2024/03/05 10:17:53;;;;;;;10.73;8.20;;;10.60;99.90;;;;;;5054255;28;20293;-70
2024/03/05 10:20:26;;;;;;;9.50;8.47;;;10.60;99.90;;;;;;5044653;28;20428;-70
2024/03/05 10:22:53;;;;;;;10.60;7.63;;;10.70;99.90;;;;;;5033429;28;20440;-70
2024/03/05 10:25:18;;;;;;;10.97;6.70;;;10.80;99.90;;;;;;5033951;28;20571;-70
2024/03/05 10:27:47;;;;;;;7.90;6.70;;;10.70;99.90;;;;;;5033900;28;20421;-70
2024/03/05 10:30:26;;;;;;;10.00;7.50;;;10.80;99.90;;;;;;5042126;28;20255;-70
2024/03/05 10:33:05;;;;;;;10.53;7.43;;;10.90;99.90;;;;;;5053654;28;20436;-70
2024/03/05 10:35:34;;;;;;;10.03;6.87;;;11.00;99.90;;;;;;5053910;28;20429;-70
2024/03/05 10:38:03;;;;;;;9.67;6.73;;;11.00;99.90;;;;;;5053368;28;20453;-71
2024/03/05 10:40:34;;;;;;;9.20;7.77;;;11.00;99.90;;;;;;5042997;28;20441;-70
2024/03/05 10:43:02;;;;;;;11.20;9.57;;;11.00;99.90;;;;;;5032414;28;20429;-70
2024/03/05 10:45:28;;;;;;;9.57;7.70;;;11.20;99.90;;;;;;5033832;28;20406;-70
2024/03/05 10:47:58;;;;;;;8.37;7.47;;;11.20;99.90;;;;;;5033479;28;20405;-70
2024/03/05 10:50:28;;;;;;;6.97;6.10;;;11.10;99.90;;;;;;5043398;28;20830;-70
2024/03/05 10:52:55;;;;;;;9.73;6.27;;;10.70;99.90;;;;;;5053769;28;20952;-70
2024/03/05 10:55:22;;;;;;;8.00;6.57;;;10.70;99.90;;;;;;5053963;28;20896;-70
2024/03/05 11:00:40;;;;;;;7.73;6.00;;;10.30;99.90;;;;;;5042330;28;20424;-70
2024/03/05 11:03:07;;;;;;;14.13;7.80;;;10.30;99.90;;;;;;5033622;28;20492;-70
2024/03/05 11:05:45;;;;;;;8.77;7.13;;;10.40;99.90;;;;;;5033574;28;20769;-70
2024/03/05 11:08:13;;;;;;;8.50;7.50;;;10.50;99.90;;;;;;5033742;28;20391;-70
2024/03/05 11:10:41;;;;;;;9.83;6.97;;;10.50;99.90;;;;;;5044529;28;20448;-70
2024/03/05 11:13:07;;;;;;;9.63;8.20;;;10.70;99.90;;;;;;5053167;28;20774;-70
2024/03/05 11:15:35;;;;;;;9.87;8.87;;;10.70;99.90;;;;;;5053368;28;20400;-70
2024/03/05 11:18:01;;;;;;;9.90;8.70;;;10.40;99.90;;;;;;5052318;28;20459;-70
2024/03/05 11:20:40;;;;;;;8.67;7.87;;;10.40;99.90;;;;;;5042138;28;20440;-69
2024/03/05 11:23:07;;;;;;;10.43;8.97;;;10.50;99.90;;;;;;5032882;28;20791;-70
2024/03/05 11:25:33;;;;;;;10.90;9.17;;;10.50;99.90;;;;;;5032896;28;20404;-70
2024/03/05 11:27:59;;;;;;;7.33;6.53;;;10.50;99.90;;;;;;5032886;28;20425;-70
2024/03/05 11:30:28;;;;;;;7.80;6.53;;;10.40;99.90;;;;;;5041608;28;20429;-70
2024/03/05 11:32:55;;;;;;;11.83;6.93;;;10.40;99.90;;;;;;5049762;28;20162;-70
2024/03/05 11:35:20;;;;;;;7.80;7.00;;;10.20;99.90;;;;;;5052988;28;20503;-70
2024/03/05 11:37:47;;;;;;;7.43;6.60;;;10.30;99.90;;;;;;5052649;28;20447;-70
2024/03/05 11:40:15;;;;;;;6.10;5.50;;;10.40;99.90;;;;;;5045362;28;20199;-70
2024/03/05 11:42:46;;;;;;;7.27;6.07;;;10.20;99.90;;;;;;5033152;28;20485;-70
2024/03/05 11:45:31;;;;;;;6.67;6.00;;;10.20;99.90;;;;;;5032781;28;20452;-70
2024/03/05 11:47:59;;;;;;;6.70;6.03;;;10.30;99.90;;;;;;5033463;28;20452;-70
2024/03/05 11:50:24;;;;;;;6.40;5.80;;;10.20;99.90;;;;;;5041409;28;20529;-69
2024/03/05 11:52:52;;;;;;;6.47;5.60;;;10.10;99.90;;;;;;5052555;28;20441;-70
2024/03/05 11:55:24;;;;;;;5.30;4.80;;;9.90;99.90;;;;;;5050149;28;20263;-70
2024/03/05 11:57:56;;;;;;;5.50;4.93;;;9.90;99.90;;;;;;5052541;28;20439;-69
2024/03/05 12:00:22;;;;;;;7.50;4.60;;;10.00;99.90;;;;;;5052147;28;20827;-70
2024/03/05 12:02:55;;;;;;;5.03;4.50;;;9.90;99.90;;;;;;5052507;28;20408;-69
2024/03/05 12:05:21;;;;;;;4.93;4.00;;;9.90;99.90;;;;;;5045551;28;20467;-69
2024/03/05 12:08:07;;;;;;;5.20;4.70;;;9.70;99.90;;;;;;5032827;28;20400;-70
2024/03/05 12:10:39;;;;;;;4.23;3.83;;;9.90;99.90;;;;;;5032615;28;20478;-70
2024/03/05 12:13:05;;;;;;;5.23;4.37;;;9.90;99.90;;;;;;5032875;28;20404;-70
2024/03/05 12:15:35;;;;;;;3.70;3.40;;;9.90;99.90;;;;;;5041106;28;20460;-70
2024/03/05 12:18:11;;;;;;;4.70;4.03;;;10.00;99.90;;;;;;5052431;28;20494;-70
2024/03/05 12:20:42;;;;;;;3.87;3.57;;;10.20;99.90;;;;;;5052316;28;20426;-70
2024/03/05 12:23:08;;;;;;;4.00;3.70;;;10.30;99.90;;;;;;5052642;28;20458;-70
2024/03/05 12:25:34;;;;;;;4.17;3.57;;;10.50;99.90;;;;;;5043720;28;20408;-70
2024/03/05 12:28:00;;;;;;;5.37;3.90;;;10.40;99.90;;;;;;5033181;28;20429;-70
2024/03/05 12:30:35;;;;;;;3.70;3.10;;;10.30;99.90;;;;;;5036379;28;20445;-70
2024/03/05 12:33:01;;;;;;;4.50;3.40;;;10.60;99.90;;;;;;5035618;28;20923;-70
2024/03/05 12:35:27;;;;;;;4.47;3.70;;;10.60;99.90;;;;;;5044065;28;20466;-70
2024/03/05 12:37:54;;;;;;;3.60;3.30;;;10.60;99.90;;;;;;5056156;28;20441;-70
2024/03/05 12:40:22;;;;;;;4.50;4.10;;;10.70;99.90;;;;;;5092773;22;20571;-70